createdAt,value
2022-08-21T04:34:13.008Z,14.39
2022-08-21T04:36:27.394Z,14.46
2022-08-21T04:38:43.187Z,14.61
2022-08-21T04:40:56.176Z,14.81
2022-08-21T04:43:11.548Z,15.05
2022-08-21T04:45:26.007Z,15.29
2022-08-21T04:47:41.927Z,15.52
2022-08-21T04:49:57.736Z,15.72
2022-08-21T04:52:12.135Z,15.89
2022-08-21T04:54:26.523Z,16.040001
2022-08-21T04:56:41.037Z,16.17
2022-08-21T04:58:55.371Z,16.299999
2022-08-21T05:01:09.750Z,16.42
2022-08-21T05:03:24.190Z,16.540001
2022-08-21T05:05:38.556Z,16.66
2022-08-21T05:07:53.972Z,16.790001
2022-08-21T05:10:08.337Z,16.91
2022-08-21T05:12:23.808Z,17.01
2022-08-21T05:14:38.057Z,17.120001
2022-08-21T05:16:52.425Z,17.219999
2022-08-21T05:19:06.809Z,17.299999
2022-08-21T05:21:21.204Z,17.360001
2022-08-21T05:23:35.555Z,17.43
2022-08-21T05:25:49.929Z,17.5
2022-08-21T05:28:04.260Z,17.57
2022-08-21T05:30:18.624Z,17.639999
2022-08-21T05:32:33.017Z,17.700001
2022-08-21T05:34:47.380Z,17.77
2022-08-21T05:37:05.573Z,17.84
2022-08-21T05:39:17.159Z,17.9
2022-08-21T05:41:31.540Z,17.950001
2022-08-21T05:43:45.895Z,18.01
2022-08-21T05:46:00.252Z,18.059999
2022-08-21T05:48:14.710Z,18.110001
2022-08-21T05:50:33.115Z,18.15
2022-08-21T05:52:43.445Z,18.209999
2022-08-21T05:54:57.837Z,18.26
2022-08-21T05:57:12.207Z,18.33
2022-08-21T05:59:27.592Z,18.4
2022-08-21T06:01:42.090Z,18.469999
2022-08-21T06:03:57.191Z,18.540001
2022-08-21T06:06:11.753Z,18.58
2022-08-21T06:08:26.187Z,18.620001
2022-08-21T06:10:40.519Z,18.639999
2022-08-21T06:12:54.954Z,18.66
2022-08-21T06:15:09.294Z,18.67
2022-08-21T06:17:24.708Z,18.690001
2022-08-21T06:19:39.087Z,18.700001
2022-08-21T06:21:54.429Z,18.74
2022-08-21T06:24:08.810Z,18.780001
2022-08-21T06:26:23.168Z,18.809999
2022-08-21T06:28:37.553Z,18.82
2022-08-21T06:30:53.011Z,18.860001
2022-08-21T06:33:07.361Z,18.91
2022-08-21T06:35:22.737Z,18.969999
2022-08-21T06:37:37.416Z,19
2022-08-21T06:39:51.764Z,19.01
2022-08-21T06:42:10.175Z,19.01
2022-08-21T06:44:22.499Z,19.01
2022-08-21T06:46:36.838Z,19.030001
2022-08-21T06:48:53.255Z,19.09
2022-08-21T06:51:07.664Z,19.17
2022-08-21T06:53:22.231Z,19.23
2022-08-21T06:55:36.572Z,19.27
2022-08-21T06:57:51.807Z,19.309999
2022-08-21T07:00:05.371Z,19.379999
2022-08-21T07:02:19.739Z,19.469999
2022-08-21T07:04:34.151Z,19.540001
2022-08-21T07:06:48.519Z,19.6
2022-08-21T07:09:02.924Z,19.67
2022-08-21T07:11:17.295Z,19.74
2022-08-21T07:13:31.658Z,19.82
2022-08-21T07:15:45.993Z,19.889999
2022-08-21T07:18:00.361Z,19.950001
2022-08-21T07:20:14.774Z,20
2022-08-21T07:22:29.142Z,20.040001
2022-08-21T07:24:43.483Z,20.1
2022-08-21T07:26:57.952Z,20.15
2022-08-21T07:29:14.297Z,20.200001
2022-08-21T07:31:28.627Z,20.24
2022-08-21T07:33:42.997Z,20.27
2022-08-21T07:35:57.338Z,20.32
2022-08-21T07:38:11.704Z,20.4
2022-08-21T07:40:26.145Z,20.469999
2022-08-21T07:42:41.525Z,20.549999
2022-08-21T07:44:56.417Z,20.58
2022-08-21T07:47:10.283Z,20.610001
2022-08-21T07:49:25.587Z,20.66
2022-08-21T07:51:40.038Z,20.719999
2022-08-21T07:53:54.336Z,20.75
2022-08-21T07:56:08.664Z,20.780001
2022-08-21T07:58:24.106Z,20.799999
2022-08-21T08:00:38.526Z,20.84
2022-08-21T08:02:52.867Z,20.879999
2022-08-21T08:05:07.259Z,20.92
2022-08-21T08:07:21.663Z,20.99
2022-08-21T08:09:36.090Z,21.059999
2022-08-21T08:11:50.579Z,21.120001
2022-08-21T08:14:04.991Z,21.18
2022-08-21T08:16:19.372Z,21.25
2022-08-21T08:18:33.836Z,21.309999
2022-08-21T08:20:48.378Z,21.35
2022-08-21T08:23:02.970Z,21.379999
2022-08-21T08:25:17.104Z,21.4
2022-08-21T08:27:31.492Z,21.450001
2022-08-21T08:29:45.861Z,21.5
2022-08-21T08:32:00.292Z,21.540001
2022-08-21T08:34:23.670Z,21.559999
2022-08-21T08:36:32.003Z,21.6
2022-08-21T08:38:48.436Z,21.690001
2022-08-21T08:41:03.789Z,21.780001
2022-08-21T08:43:18.141Z,21.870001
2022-08-21T08:45:32.486Z,21.959999
2022-08-21T08:47:46.927Z,22.040001
2022-08-21T08:50:01.323Z,22.09
2022-08-21T08:52:15.670Z,22.139999
2022-08-21T08:54:30.020Z,22.209999
2022-08-21T08:56:44.398Z,22.26
2022-08-21T08:58:58.774Z,22.32
2022-08-21T09:01:14.215Z,22.360001
2022-08-21T09:03:28.606Z,22.379999
2022-08-21T09:05:42.940Z,22.43
2022-08-21T09:07:57.353Z,22.459999
2022-08-21T09:10:11.766Z,22.459999
2022-08-21T09:12:26.123Z,22.49
2022-08-21T09:14:40.527Z,22.57
2022-08-21T09:16:54.948Z,22.620001
2022-08-21T09:19:10.481Z,22.68
2022-08-21T09:21:25.897Z,22.74
2022-08-21T09:23:40.370Z,22.799999
2022-08-21T09:25:54.784Z,22.889999
2022-08-21T09:28:09.199Z,22.969999
2022-08-21T09:30:23.523Z,23.02
2022-08-21T09:32:38.858Z,23.030001
2022-08-21T09:34:53.261Z,23.049999
2022-08-21T09:37:07.690Z,23.110001
2022-08-21T09:39:22.067Z,23.209999
2022-08-21T09:41:36.455Z,23.299999
2022-08-21T09:43:50.778Z,23.370001
2022-08-21T09:46:05.130Z,23.42
2022-08-21T09:48:19.545Z,23.5
2022-08-21T09:50:36.924Z,23.540001
2022-08-21T09:52:52.269Z,23.49
2022-08-21T09:55:05.682Z,23.440001
2022-08-21T09:57:22.216Z,23.389999
2022-08-21T09:59:37.230Z,23.34
2022-08-21T10:01:51.076Z,23.32
2022-08-21T10:04:05.519Z,23.32
2022-08-21T10:06:19.851Z,23.33
2022-08-21T10:08:34.242Z,23.389999
2022-08-21T10:10:48.641Z,23.469999
2022-08-21T10:13:04.987Z,23.559999
2022-08-21T10:15:19.320Z,23.639999
2022-08-21T10:17:33.757Z,23.690001
2022-08-21T10:19:48.274Z,23.74
2022-08-21T10:22:02.838Z,23.809999
2022-08-21T10:24:21.393Z,23.879999
2022-08-21T10:26:34.609Z,23.93
2022-08-21T10:28:48.982Z,24
2022-08-21T10:31:03.325Z,24.040001
2022-08-21T10:33:17.736Z,24.040001
2022-08-21T10:35:32.181Z,24.040001
2022-08-21T10:37:46.567Z,24.08
2022-08-21T10:40:01.234Z,24.120001
2022-08-21T10:42:16.157Z,24.129999
2022-08-21T10:44:33.637Z,24.18
2022-08-21T10:46:48.179Z,24.26
2022-08-21T10:49:02.667Z,24.280001
2022-08-21T10:51:16.958Z,24.299999
2022-08-21T10:53:34.403Z,24.370001
2022-08-21T10:55:48.697Z,24.49
2022-08-21T10:58:03.088Z,24.610001
2022-08-21T11:00:17.524Z,24.68
2022-08-21T11:02:32.881Z,24.73
2022-08-21T11:04:49.262Z,24.76
2022-08-21T11:07:01.598Z,24.780001
2022-08-21T11:09:19.214Z,24.85
2022-08-21T11:11:35.747Z,24.950001
2022-08-21T11:13:48.672Z,25.08
2022-08-21T11:16:03.117Z,25.18
2022-08-21T11:18:18.486Z,25.209999
2022-08-21T11:20:33.931Z,25.25
2022-08-21T11:22:51.312Z,25.309999
2022-08-21T11:25:06.052Z,25.379999
2022-08-21T11:27:20.611Z,25.459999
2022-08-21T11:29:34.994Z,25.530001
2022-08-21T11:31:49.453Z,25.629999
2022-08-21T11:34:03.835Z,25.75
2022-08-21T11:36:18.271Z,25.860001
2022-08-21T11:38:32.693Z,25.92
2022-08-21T11:40:47.068Z,25.959999
2022-08-21T11:43:01.518Z,25.950001
2022-08-21T11:45:15.869Z,25.92
2022-08-21T11:47:31.246Z,25.889999
2022-08-21T11:49:45.681Z,25.83
2022-08-21T11:52:01.049Z,25.76
2022-08-21T11:54:15.442Z,25.73
2022-08-21T11:56:29.852Z,25.68
2022-08-21T11:58:44.236Z,25.620001
2022-08-21T12:00:58.621Z,25.59
2022-08-21T12:03:13.035Z,25.6
2022-08-21T12:05:27.692Z,25.59
2022-08-21T12:07:42.083Z,25.57
2022-08-21T12:09:56.477Z,25.59
2022-08-21T12:12:10.905Z,25.67
2022-08-21T12:14:25.395Z,25.84
2022-08-21T12:16:39.752Z,26.040001
2022-08-21T12:18:54.211Z,26.290001
2022-08-21T12:21:08.640Z,26.530001
2022-08-21T12:23:22.985Z,26.73
2022-08-21T12:25:37.523Z,26.870001
2022-08-21T12:27:51.900Z,27.01
2022-08-21T12:30:06.325Z,27.18
2022-08-21T12:32:20.724Z,27.360001
2022-08-21T12:34:35.080Z,27.57
2022-08-21T12:36:50.401Z,27.809999
2022-08-21T12:39:04.870Z,28.059999
2022-08-21T12:41:19.334Z,28.299999
2022-08-21T12:43:33.656Z,28.51
2022-08-21T12:45:48.005Z,28.65
2022-08-21T12:48:02.427Z,28.74
2022-08-21T12:50:16.845Z,28.76
2022-08-21T12:52:34.621Z,28.73
2022-08-21T12:54:47.717Z,28.66
2022-08-21T12:57:02.112Z,28.559999
2022-08-21T12:59:17.839Z,28.459999
2022-08-21T13:01:32.230Z,28.360001
2022-08-21T13:03:55.507Z,28.35
2022-08-21T13:06:07.060Z,28.440001
2022-08-21T13:08:21.374Z,28.559999
2022-08-21T13:10:35.953Z,28.65
2022-08-21T13:12:50.301Z,28.719999
2022-08-21T13:15:09.211Z,28.790001
2022-08-21T13:17:23.348Z,28.809999
2022-08-21T13:19:36.467Z,28.82
2022-08-21T13:21:50.809Z,28.77
2022-08-21T13:24:14.817Z,28.65
2022-08-21T13:26:22.672Z,28.43
2022-08-21T13:28:37.043Z,28.190001
2022-08-21T13:30:52.716Z,27.969999
2022-08-21T13:33:12.386Z,27.790001
2022-08-21T13:35:22.915Z,27.639999
2022-08-21T13:37:37.180Z,27.5
2022-08-21T13:39:51.772Z,27.370001
2022-08-21T13:42:06.137Z,27.25
2022-08-21T13:44:21.026Z,27.15
2022-08-21T13:46:34.869Z,27.049999
2022-08-21T13:48:49.232Z,26.950001
2022-08-21T13:51:03.839Z,26.860001
2022-08-21T13:53:18.171Z,26.809999
2022-08-21T13:55:32.628Z,26.809999
2022-08-21T13:57:46.971Z,26.84
2022-08-21T14:00:01.861Z,26.889999
2022-08-21T14:02:16.124Z,26.959999
2022-08-21T14:04:30.550Z,27.030001
2022-08-21T14:06:44.887Z,27.049999
2022-08-21T14:08:59.267Z,27.049999
2022-08-21T14:11:14.117Z,27
2022-08-21T14:13:29.520Z,26.93
2022-08-21T14:15:45.972Z,26.860001
2022-08-21T14:18:00.380Z,26.790001
2022-08-21T14:20:14.749Z,26.709999
2022-08-21T14:22:29.106Z,26.629999
2022-08-21T14:24:43.742Z,26.68
2022-08-21T14:27:01.084Z,26.92
2022-08-21T14:29:15.664Z,27.209999
2022-08-21T14:31:32.028Z,27.52
2022-08-21T14:33:49.668Z,27.940001
2022-08-21T14:36:04.018Z,28.360001
2022-08-21T14:38:18.352Z,28.700001
2022-08-21T14:40:32.798Z,29.030001
2022-08-21T14:42:47.060Z,29.33
2022-08-21T14:45:01.752Z,29.360001
2022-08-21T14:47:16.356Z,29.32
2022-08-21T14:49:30.973Z,29.4
2022-08-21T14:51:53.786Z,29.52
2022-08-21T14:54:02.043Z,29.719999
2022-08-21T14:56:16.878Z,29.870001
2022-08-21T14:58:31.637Z,29.85
2022-08-21T15:00:45.998Z,29.68
2022-08-21T15:03:00.485Z,29.459999
2022-08-21T15:05:14.732Z,29.219999
2022-08-21T15:07:32.038Z,28.959999
2022-08-21T15:09:46.375Z,28.709999
2022-08-21T15:12:00.731Z,28.5
2022-08-21T15:14:15.146Z,28.290001
2022-08-21T15:16:30.548Z,28.08
2022-08-21T15:18:44.956Z,27.9
2022-08-21T15:20:59.366Z,27.719999
2022-08-21T15:23:15.015Z,27.540001
2022-08-21T15:25:28.937Z,27.370001
2022-08-21T15:27:43.311Z,27.18
2022-08-21T15:29:57.817Z,27.02
2022-08-21T15:32:12.176Z,26.879999
2022-08-21T15:34:27.172Z,26.76
2022-08-21T15:36:40.964Z,26.66
2022-08-21T15:38:55.678Z,26.58
2022-08-21T15:41:10.078Z,26.5
2022-08-21T15:43:30.280Z,26.43
2022-08-21T15:45:39.959Z,26.360001
2022-08-21T15:47:54.445Z,26.290001
2022-08-21T15:50:08.824Z,26.219999
2022-08-21T15:52:23.184Z,26.16
2022-08-21T15:54:37.586Z,26.09
2022-08-21T15:56:52.012Z,26.01
2022-08-21T15:59:06.385Z,25.940001
2022-08-21T16:01:20.798Z,25.879999
2022-08-21T16:03:35.098Z,25.84
2022-08-21T16:05:49.474Z,25.809999
2022-08-21T16:08:03.837Z,25.780001
2022-08-21T16:10:18.240Z,25.77
2022-08-21T16:12:34.620Z,25.75
2022-08-21T16:14:50.069Z,25.74
2022-08-21T16:17:04.450Z,25.74
2022-08-21T16:19:18.849Z,25.74
2022-08-21T16:21:33.209Z,25.74
2022-08-21T16:23:47.560Z,25.719999
2022-08-21T16:26:03.888Z,25.700001
2022-08-21T16:28:21.317Z,25.690001
2022-08-21T16:30:36.685Z,25.68
2022-08-21T16:32:51.181Z,25.700001
2022-08-21T16:35:05.642Z,25.799999
2022-08-21T16:37:23.897Z,25.870001
2022-08-21T16:39:34.614Z,25.940001
2022-08-21T16:41:49.035Z,25.98
2022-08-21T16:44:03.434Z,26
2022-08-21T16:46:19.815Z,26
2022-08-21T16:48:34.295Z,25.99
2022-08-21T16:50:51.022Z,25.98
2022-08-21T16:53:03.027Z,25.98
2022-08-21T16:55:17.566Z,25.950001
2022-08-21T16:57:32.138Z,25.93
2022-08-21T16:59:46.523Z,25.91
2022-08-21T17:02:00.992Z,25.879999
2022-08-21T17:04:15.553Z,25.83
2022-08-21T17:06:29.951Z,25.77
2022-08-21T17:08:44.322Z,25.719999
2022-08-21T17:11:00.772Z,25.68
2022-08-21T17:13:15.139Z,25.639999
2022-08-21T17:15:29.678Z,25.629999
2022-08-21T17:17:45.015Z,25.629999
2022-08-21T17:19:59.421Z,25.610001
2022-08-21T17:22:13.999Z,25.58
2022-08-21T17:24:28.334Z,25.549999
2022-08-21T17:26:42.808Z,25.52
2022-08-21T17:28:57.176Z,25.49
2022-08-21T17:31:11.593Z,25.450001
2022-08-21T17:33:25.993Z,25.41
2022-08-21T17:35:40.433Z,25.360001
2022-08-21T17:37:54.935Z,25.309999
2022-08-21T17:40:15.173Z,25.27
2022-08-21T17:42:29.574Z,25.24
2022-08-21T17:44:44.074Z,25.209999
2022-08-21T17:46:58.473Z,25.18
2022-08-21T17:49:12.904Z,25.15
2022-08-21T17:51:27.951Z,25.110001
2022-08-21T17:53:45.930Z,25.059999
2022-08-21T17:56:04.140Z,25
2022-08-21T17:58:17.480Z,24.9
2022-08-21T18:00:33.681Z,24.790001
2022-08-21T18:02:49.764Z,24.67
2022-08-21T18:05:04.687Z,24.549999
2022-08-21T18:07:25.250Z,24.43
2022-08-21T18:09:37.818Z,24.309999
2022-08-21T18:11:52.315Z,24.190001
2022-08-21T18:14:07.699Z,24.08
2022-08-21T18:16:21.191Z,23.950001
2022-08-21T18:18:36.559Z,23.809999
2022-08-21T18:20:50.942Z,23.690001
2022-08-21T18:23:05.284Z,23.58
2022-08-21T18:25:19.658Z,23.49
2022-08-21T18:27:34.067Z,23.42
2022-08-21T18:29:48.792Z,23.360001
2022-08-21T18:32:03.905Z,23.290001
2022-08-21T18:34:23.169Z,23.23
2022-08-21T18:36:45.789Z,23.18
2022-08-21T18:39:19.702Z,23.129999
2022-08-21T18:41:20.675Z,23.09
2022-08-21T18:43:35.832Z,23.040001
2022-08-21T18:45:53.541Z,22.959999
2022-08-21T18:48:14.020Z,22.879999
2022-08-21T18:50:34.009Z,22.809999
2022-08-21T18:52:55.863Z,22.77
2022-08-21T18:57:27.710Z,22.67
2022-08-21T18:59:43.838Z,22.6
2022-08-21T19:01:58.513Z,22.549999
2022-08-21T19:04:25.401Z,22.51
2022-08-21T19:06:33.842Z,22.459999
2022-08-21T19:08:52.273Z,22.41
2022-08-21T19:11:07.321Z,22.370001
2022-08-21T19:13:22.685Z,22.35
2022-08-21T19:15:37.783Z,22.34
2022-08-21T19:17:54.471Z,22.33
2022-08-21T19:20:16.351Z,22.33
2022-08-21T19:22:28.352Z,22.32
2022-08-21T19:24:49.984Z,22.299999
2022-08-21T19:27:06.108Z,22.280001
2022-08-21T19:29:34.496Z,22.25
2022-08-21T19:31:50.038Z,22.209999
2022-08-21T19:34:12.473Z,22.190001
2022-08-21T19:36:32.052Z,22.17
2022-08-21T19:38:52.797Z,22.15
2022-08-21T19:41:15.932Z,22.120001
2022-08-21T19:43:30.258Z,22.09
2022-08-21T19:45:44.626Z,22.07
2022-08-21T19:48:00.076Z,22.049999
2022-08-21T19:50:17.343Z,22.040001
2022-08-21T19:52:30.288Z,22.030001
2022-08-21T19:54:46.644Z,22.030001
2022-08-21T19:57:03.729Z,22.030001
2022-08-21T19:59:16.379Z,22.030001
2022-08-21T20:01:32.696Z,22.02
2022-08-21T20:03:53.926Z,22
2022-08-21T20:06:04.430Z,21.959999
2022-08-21T20:08:20.380Z,21.92
2022-08-21T20:10:35.424Z,21.889999
2022-08-21T20:12:51.733Z,21.879999
2022-08-21T20:17:23.030Z,21.889999
2022-08-21T20:19:37.431Z,21.889999
2022-08-21T20:21:51.881Z,21.889999
2022-08-21T20:24:06.362Z,21.879999
2022-08-21T20:26:22.810Z,21.879999
2022-08-21T20:28:37.199Z,21.860001
2022-08-21T20:30:51.726Z,21.85
2022-08-21T20:33:06.220Z,21.84
2022-08-21T20:35:20.672Z,21.84
2022-08-21T20:37:37.372Z,21.84
2022-08-21T20:39:50.557Z,21.82
2022-08-21T20:42:06.931Z,21.790001
2022-08-21T20:44:20.193Z,21.76
2022-08-21T20:46:36.694Z,21.75
2022-08-21T20:48:51.131Z,21.76
2022-08-21T20:51:05.798Z,21.780001
2022-08-21T20:53:21.216Z,21.799999
2022-08-21T20:55:37.764Z,21.84
2022-08-21T20:57:52.259Z,21.860001
2022-08-21T21:00:08.125Z,21.879999
2022-08-21T21:02:24.102Z,21.860001
2022-08-21T21:04:38.658Z,21.84
2022-08-21T21:06:56.985Z,21.83
2022-08-21T21:09:09.894Z,21.82
2022-08-21T21:11:24.357Z,21.82
2022-08-21T21:13:40.798Z,21.83
2022-08-21T21:15:56.205Z,21.860001
2022-08-21T21:18:13.207Z,21.889999
2022-08-21T21:20:25.986Z,21.91
2022-08-21T21:22:40.439Z,21.92
2022-08-21T21:24:55.016Z,21.92
2022-08-21T21:27:11.588Z,21.92
2022-08-21T21:29:26.662Z,21.9
